Time;durP1;ratioP1;P1;durP2;ratioP2;P2;SDS_P1;SDS_P2;PMS_P1;PMS_P2;Temp;Humidity;BMP_temperature;BMP_pressure;BME280_temperature;BME280_humidity;BME280_pressure;Samples;Min_cycle;Max_cycle;Signal;HPM_P1;HPM_P2
2021/12/13 00:01:08;;;;;;;1.17;1.00;;;;;;;;;;4197018;28;20056;-35
2021/12/13 00:03:18;;;;;;;1.15;0.90;;;;;;;;;;4188567;28;20045;-35
2021/12/13 00:05:19;;;;;;;;;;;;;;;;;;4197473;28;20059;-36
2021/12/13 00:07:26;;;;;;;1.35;1.00;;;;;;;;;;4197728;28;20291;-35
2021/12/13 00:09:28;;;;;;;0.93;0.88;;;;;;;;;;4199557;28;20396;-35
2021/12/13 00:11:31;;;;;;;1.25;0.90;;;;;;;;;;4199635;28;20373;-35
2021/12/13 00:13:38;;;;;;;1.35;1.08;;;;;;;;;;4199533;28;20400;-35
2021/12/13 00:15:44;;;;;;;1.48;1.13;;;;;;;;;;4199653;28;20365;-35
2021/12/13 00:17:47;;;;;;;1.00;0.90;;;;;;;;;;4199576;28;20040;-35
2021/12/13 00:19:50;;;;;;;1.10;0.85;;;;;;;;;;4199467;28;20098;-36
2021/12/13 00:21:59;;;;;;;1.30;0.93;;;;;;;;;;4197784;28;20056;-35
2021/12/13 00:24:02;;;;;;;1.10;0.90;;;;;;;;;;4199442;28;20056;-35
2021/12/13 00:26:04;;;;;;;1.00;0.90;;;;;;;;;;4199607;28;20098;-35
2021/12/13 00:28:06;;;;;;;1.10;0.90;;;;;;;;;;4199272;28;20048;-35
2021/12/13 00:30:07;;;;;;;1.15;0.88;;;;;;;;;;4199315;28;20075;-35
2021/12/13 00:32:14;;;;;;;1.02;0.93;;;;;;;;;;4199542;28;20106;-36
2021/12/13 00:34:33;;;;;;;1.27;1.05;;;;;;;;;;4198243;28;20048;-35
2021/12/13 00:36:37;;;;;;;0.90;0.90;;;;;;;;;;4199396;28;20052;-35
2021/12/13 00:38:42;;;;;;;1.10;1.00;;;;;;;;;;4199100;28;20045;-35
2021/12/13 00:40:47;;;;;;;0.88;0.88;;;;;;;;;;4199469;28;20048;-35
2021/12/13 00:42:52;;;;;;;1.02;0.93;;;;;;;;;;4199031;28;20093;-35
2021/12/13 00:44:55;;;;;;;0.82;0.73;;;;;;;;;;4197992;28;20061;-35
2021/12/13 00:46:57;;;;;;;0.80;0.80;;;;;;;;;;4199322;28;20056;-35
2021/12/13 00:48:59;;;;;;;1.00;0.80;;;;;;;;;;4199421;28;20060;-36
2021/12/13 00:51:03;;;;;;;0.88;0.70;;;;;;;;;;4199132;28;20447;-36
2021/12/13 00:53:05;;;;;;;0.80;0.80;;;;;;;;;;4199075;28;20102;-35
2021/12/13 00:55:25;;;;;;;1.00;0.90;;;;;;;;;;4198985;28;20533;-36
2021/12/13 00:57:26;;;;;;;0.90;0.80;;;;;;;;;;4198846;28;20053;-35
2021/12/13 00:59:32;;;;;;;1.08;0.80;;;;;;;;;;4199286;28;20106;-35
2021/12/13 01:01:34;;;;;;;0.80;0.77;;;;;;;;;;4198852;28;20057;-35
2021/12/13 01:03:40;;;;;;;1.20;1.10;;;;;;;;;;4198932;28;20057;-36
2021/12/13 01:06:01;;;;;;;0.75;0.60;;;;;;;;;;4199224;28;20053;-35
2021/12/13 01:08:41;;;;;;;0.60;0.60;;;;;;;;;;4167620;28;20404;-39
2021/12/13 01:10:55;;;;;;;0.88;0.73;;;;;;;;;;4147485;28;20077;-35
2021/12/13 01:12:58;;;;;;;1.00;0.80;;;;;;;;;;4147385;28;20592;-35
2021/12/13 01:15:04;;;;;;;0.77;0.70;;;;;;;;;;4150833;28;20557;-36
2021/12/13 01:17:23;;;;;;;0.90;0.73;;;;;;;;;;4197364;28;20508;-35
2021/12/13 01:19:35;;;;;;;0.90;0.80;;;;;;;;;;4197697;28;20094;-36
2021/12/13 01:21:42;;;;;;;1.35;1.00;;;;;;;;;;4198244;28;20150;-35
2021/12/13 01:23:49;;;;;;;1.00;0.75;;;;;;;;;;4198475;28;20064;-34
2021/12/13 01:26:14;;;;;;;1.08;0.80;;;;;;;;;;4198462;28;20052;-35
2021/12/13 01:28:22;;;;;;;1.15;0.82;;;;;;;;;;4198358;28;20052;-36
2021/12/13 01:30:27;;;;;;;0.80;0.80;;;;;;;;;;4198647;28;20041;-35
2021/12/13 01:32:40;;;;;;;0.63;0.60;;;;;;;;;;4198317;28;20049;-35
2021/12/13 01:34:41;;;;;;;1.08;0.80;;;;;;;;;;4198436;28;20049;-35
2021/12/13 01:36:49;;;;;;;1.65;1.27;;;;;;;;;;4198056;28;20118;-35
2021/12/13 01:38:52;;;;;;;0.82;0.70;;;;;;;;;;4196972;28;20048;-35
2021/12/13 01:40:53;;;;;;;1.05;0.80;;;;;;;;;;4198622;28;20060;-35
2021/12/13 01:42:56;;;;;;;1.05;0.80;;;;;;;;;;4198163;28;20048;-34
2021/12/13 01:45:00;;;;;;;1.00;0.80;;;;;;;;;;4198214;28;20415;-35
2021/12/13 01:47:06;;;;;;;0.95;0.93;;;;;;;;;;4198233;28;20166;-35
2021/12/13 01:49:07;;;;;;;1.02;0.80;;;;;;;;;;4198205;28;20532;-35
2021/12/13 01:51:11;;;;;;;0.95;0.80;;;;;;;;;;4198071;28;20044;-35
2021/12/13 01:53:12;;;;;;;0.68;0.60;;;;;;;;;;4198087;28;20049;-35
2021/12/13 01:55:24;;;;;;;1.48;1.05;;;;;;;;;;4198073;28;20056;-35
2021/12/13 01:57:41;;;;;;;0.80;0.70;;;;;;;;;;4164216;28;20092;-35
2021/12/13 01:59:52;;;;;;;1.08;0.70;;;;;;;;;;4198114;28;20063;-34
2021/12/13 02:01:54;;;;;;;1.35;0.90;;;;;;;;;;4197901;28;20097;-35
2021/12/13 02:04:00;;;;;;;0.80;0.80;;;;;;;;;;4198119;28;20056;-35
2021/12/13 02:06:01;;;;;;;1.00;0.90;;;;;;;;;;4198033;28;20465;-35
2021/12/13 02:08:02;;;;;;;0.63;0.55;;;;;;;;;;4197694;28;20056;-35
2021/12/13 02:10:04;;;;;;;1.17;0.90;;;;;;;;;;4198023;28;20060;-35
2021/12/13 02:12:12;;;;;;;0.55;0.55;;;;;;;;;;4198049;28;20056;-35
2021/12/13 02:14:16;;;;;;;1.00;0.80;;;;;;;;;;4197855;28;20052;-35
2021/12/13 02:18:41;;;;;;;0.80;0.70;;;;;;;;;;4197789;28;20056;-34
2021/12/13 02:20:45;;;;;;;0.90;0.80;;;;;;;;;;4198139;28;20052;-35
2021/12/13 02:22:48;;;;;;;0.98;0.90;;;;;;;;;;4197008;28;20558;-35
2021/12/13 02:24:50;;;;;;;0.52;0.47;;;;;;;;;;4197644;28;20053;-35
2021/12/13 02:26:51;;;;;;;0.60;0.60;;;;;;;;;;4197474;28;20170;-35
2021/12/13 02:29:12;;;;;;;0.93;0.75;;;;;;;;;;4197883;28;20102;-35
2021/12/13 02:31:21;;;;;;;0.70;0.70;;;;;;;;;;4186878;28;20072;-35
2021/12/13 02:33:35;;;;;;;0.82;0.70;;;;;;;;;;4197430;28;20377;-35
2021/12/13 02:35:39;;;;;;;0.77;0.77;;;;;;;;;;4197442;28;20381;-35
2021/12/13 02:37:41;;;;;;;1.00;0.82;;;;;;;;;;4197004;28;20055;-36
2021/12/13 02:39:44;;;;;;;0.75;0.70;;;;;;;;;;4197387;28;20382;-35
2021/12/13 02:41:45;;;;;;;0.70;0.70;;;;;;;;;;4196989;28;20136;-35
2021/12/13 02:43:50;;;;;;;0.90;0.70;;;;;;;;;;4197431;28;20048;-35
2021/12/13 02:45:52;;;;;;;1.05;0.85;;;;;;;;;;4197413;28;20041;-35
2021/12/13 02:47:56;;;;;;;1.10;0.70;;;;;;;;;;4197292;28;20404;-35
2021/12/13 02:49:58;;;;;;;1.05;0.80;;;;;;;;;;4197441;28;20048;-35
2021/12/13 02:52:01;;;;;;;0.73;0.70;;;;;;;;;;4197026;28;20064;-35
2021/12/13 02:54:17;;;;;;;1.00;0.68;;;;;;;;;;4197399;28;20439;-35
2021/12/13 02:56:19;;;;;;;0.80;0.80;;;;;;;;;;4197304;28;20551;-35
2021/12/13 02:58:22;;;;;;;0.80;0.80;;;;;;;;;;4197023;28;20048;-35
2021/12/13 03:00:30;;;;;;;1.23;0.93;;;;;;;;;;4197128;28;20052;-35
2021/12/13 03:02:38;;;;;;;0.70;0.60;;;;;;;;;;4197128;28;20052;-35
2021/12/13 03:04:39;;;;;;;1.02;0.65;;;;;;;;;;4197173;28;20078;-35
2021/12/13 03:06:43;;;;;;;0.93;0.85;;;;;;;;;;4196675;28;20052;-35
2021/12/13 03:08:48;;;;;;;1.15;0.90;;;;;;;;;;4197363;28;20082;-35
2021/12/13 03:10:52;;;;;;;0.73;0.70;;;;;;;;;;4197037;28;20056;-35
2021/12/13 03:12:53;;;;;;;0.98;0.80;;;;;;;;;;4197295;28;20059;-35
2021/12/13 03:15:06;;;;;;;1.23;0.90;;;;;;;;;;4197031;28;20409;-35
2021/12/13 03:17:10;;;;;;;0.90;0.75;;;;;;;;;;4196941;28;20566;-35
2021/12/13 03:19:16;;;;;;;0.80;0.77;;;;;;;;;;4197396;28;20059;-35
2021/12/13 03:21:24;;;;;;;0.70;0.70;;;;;;;;;;4196949;28;20061;-35
2021/12/13 03:23:48;;;;;;;1.02;0.70;;;;;;;;;;4195492;28;20053;-35
2021/12/13 03:25:49;;;;;;;0.52;0.45;;;;;;;;;;4197121;28;20098;-35
2021/12/13 03:28:03;;;;;;;0.82;0.73;;;;;;;;;;4196949;28;20178;-35
2021/12/13 03:30:09;;;;;;;0.73;0.60;;;;;;;;;;4179534;28;20057;-34
2021/12/13 03:32:11;;;;;;;0.63;0.60;;;;;;;;;;4196798;28;20052;-35
2021/12/13 03:34:22;;;;;;;1.17;0.70;;;;;;;;;;4197014;28;20397;-35
2021/12/13 03:36:29;;;;;;;0.63;0.60;;;;;;;;;;4197049;28;20473;-35
2021/12/13 03:38:37;;;;;;;0.88;0.70;;;;;;;;;;4196434;28;20106;-34
2021/12/13 03:40:39;;;;;;;1.15;0.90;;;;;;;;;;4196915;28;20052;-35
2021/12/13 03:42:42;;;;;;;1.20;0.80;;;;;;;;;;4199053;28;20056;-35
2021/12/13 03:44:47;;;;;;;0.60;0.60;;;;;;;;;;4185947;28;20151;-35
2021/12/13 03:46:48;;;;;;;0.85;0.60;;;;;;;;;;4183368;28;20057;-35
2021/12/13 03:48:50;;;;;;;1.27;0.80;;;;;;;;;;4182245;28;20106;-35
2021/12/13 03:50:53;;;;;;;0.70;0.60;;;;;;;;;;4183397;28;20049;-35
2021/12/13 03:52:56;;;;;;;1.00;0.70;;;;;;;;;;4182940;28;20421;-35
2021/12/13 03:54:59;;;;;;;0.95;0.60;;;;;;;;;;4183436;28;20476;-35
2021/12/13 03:57:00;;;;;;;1.20;0.80;;;;;;;;;;4183272;28;20045;-34
2021/12/13 03:59:08;;;;;;;0.63;0.60;;;;;;;;;;4182240;28;20099;-35
2021/12/13 04:01:15;;;;;;;1.02;0.70;;;;;;;;;;4183553;28;20048;-35
2021/12/13 04:03:16;;;;;;;0.60;0.60;;;;;;;;;;4183209;28;20098;-36
2021/12/13 04:05:19;;;;;;;0.77;0.75;;;;;;;;;;4183273;28;20455;-35
2021/12/13 04:07:22;;;;;;;0.70;0.70;;;;;;;;;;4182776;28;20535;-35
2021/12/13 04:09:25;;;;;;;0.80;0.80;;;;;;;;;;4198386;28;20086;-35
2021/12/13 04:11:27;;;;;;;0.80;0.70;;;;;;;;;;4183143;28;20056;-35
2021/12/13 04:13:31;;;;;;;0.93;0.65;;;;;;;;;;4183053;28;20103;-35
2021/12/13 04:15:49;;;;;;;0.50;0.50;;;;;;;;;;4183093;28;20810;-35
2021/12/13 04:18:02;;;;;;;0.57;0.50;;;;;;;;;;4182976;28;20053;-37
2021/12/13 04:20:06;;;;;;;1.00;0.80;;;;;;;;;;4183175;28;20061;-35
2021/12/13 04:22:08;;;;;;;0.60;0.60;;;;;;;;;;4182688;28;20055;-35
2021/12/13 04:24:30;;;;;;;0.60;0.60;;;;;;;;;;4183008;28;20113;-35
2021/12/13 04:26:36;;;;;;;0.60;0.60;;;;;;;;;;4183215;28;20107;-35
2021/12/13 04:28:39;;;;;;;0.60;0.50;;;;;;;;;;4183228;28;20056;-36
2021/12/13 04:30:49;;;;;;;0.68;0.60;;;;;;;;;;4182992;28;20107;-35
2021/12/13 04:32:52;;;;;;;0.65;0.50;;;;;;;;;;4182946;28;20056;-35
2021/12/13 04:34:55;;;;;;;0.55;0.55;;;;;;;;;;4183870;28;20499;-36
2021/12/13 04:36:56;;;;;;;1.00;0.70;;;;;;;;;;4199070;28;20052;-35
2021/12/13 04:39:07;;;;;;;0.77;0.77;;;;;;;;;;4199307;28;20040;-35
2021/12/13 04:41:08;;;;;;;0.55;0.50;;;;;;;;;;4199494;28;20045;-35
2021/12/13 04:43:10;;;;;;;0.63;0.63;;;;;;;;;;4199188;28;20048;-36
2021/12/13 04:45:13;;;;;;;0.70;0.60;;;;;;;;;;4199473;28;20052;-35
2021/12/13 04:47:16;;;;;;;0.73;0.57;;;;;;;;;;4199155;28;20052;-35
2021/12/13 04:49:19;;;;;;;0.50;0.50;;;;;;;;;;4199478;28;20052;-35
2021/12/13 04:51:24;;;;;;;0.50;0.50;;;;;;;;;;4199084;28;20056;-35
2021/12/13 04:53:30;;;;;;;0.75;0.63;;;;;;;;;;4198853;28;20067;-36
2021/12/13 04:55:40;;;;;;;0.73;0.60;;;;;;;;;;4199103;28;20378;-35
2021/12/13 04:57:41;;;;;;;0.70;0.60;;;;;;;;;;4199116;28;20053;-35
2021/12/13 04:59:48;;;;;;;0.70;0.60;;;;;;;;;;4199264;28;20086;-35
2021/12/13 05:01:51;;;;;;;0.77;0.65;;;;;;;;;;4197724;28;20059;-35
2021/12/13 05:03:54;;;;;;;1.00;0.60;;;;;;;;;;4198926;28;20094;-35
2021/12/13 05:05:59;;;;;;;0.90;0.65;;;;;;;;;;4198862;28;20048;-35
2021/12/13 05:08:01;;;;;;;0.90;0.80;;;;;;;;;;4198454;28;20381;-34
2021/12/13 05:10:03;;;;;;;0.73;0.70;;;;;;;;;;4198783;28;20044;-35
2021/12/13 05:12:09;;;;;;;0.68;0.55;;;;;;;;;;4198661;28;20045;-35
2021/12/13 05:14:11;;;;;;;0.52;0.52;;;;;;;;;;4198948;28;20056;-35
2021/12/13 05:16:12;;;;;;;0.40;0.40;;;;;;;;;;4198918;28;20106;-35
2021/12/13 05:18:19;;;;;;;0.63;0.60;;;;;;;;;;4198531;28;20064;-35
2021/12/13 05:20:23;;;;;;;0.60;0.50;;;;;;;;;;4198741;28;20381;-35
2021/12/13 05:22:24;;;;;;;0.50;0.50;;;;;;;;;;4198089;28;20053;-35
2021/12/13 05:24:27;;;;;;;0.70;0.60;;;;;;;;;;4198504;28;20061;-35
2021/12/13 05:26:30;;;;;;;0.85;0.60;;;;;;;;;;4198403;28;20051;-36
2021/12/13 05:28:46;;;;;;;0.82;0.50;;;;;;;;;;4198371;28;20071;-35
2021/12/13 05:30:50;;;;;;;0.90;0.60;;;;;;;;;;4198354;28;20443;-35
2021/12/13 05:32:54;;;;;;;1.02;0.63;;;;;;;;;;4198488;28;20110;-35
2021/12/13 05:35:01;;;;;;;0.47;0.47;;;;;;;;;;4198513;28;20044;-35
2021/12/13 05:37:03;;;;;;;0.40;0.40;;;;;;;;;;4198032;28;20542;-35
2021/12/13 05:39:11;;;;;;;0.60;0.55;;;;;;;;;;4198265;28;20386;-34
2021/12/13 05:41:19;;;;;;;0.63;0.50;;;;;;;;;;4198299;28;20470;-36
2021/12/13 05:43:29;;;;;;;0.60;0.50;;;;;;;;;;4198390;28;20051;-36
2021/12/13 05:45:35;;;;;;;0.75;0.60;;;;;;;;;;4198276;28;20404;-35
2021/12/13 05:47:36;;;;;;;1.55;0.60;;;;;;;;;;4198293;28;20106;-35
2021/12/13 05:49:42;;;;;;;0.90;0.47;;;;;;;;;;4198266;28;20055;-35
2021/12/13 05:51:45;;;;;;;0.65;0.50;;;;;;;;;;4197871;28;20048;-34
2021/12/13 05:53:51;;;;;;;0.98;0.60;;;;;;;;;;4197572;28;20557;-34
2021/12/13 05:55:57;;;;;;;0.40;0.40;;;;;;;;;;4198012;28;20086;-35
2021/12/13 05:57:58;;;;;;;0.50;0.50;;;;;;;;;;4198124;28;20057;-34
2021/12/13 06:00:08;;;;;;;0.60;0.60;;;;;;;;;;4197855;28;20561;-34
2021/12/13 06:02:15;;;;;;;0.60;0.60;;;;;;;;;;4197866;28;20048;-34
2021/12/13 06:04:23;;;;;;;0.77;0.60;;;;;;;;;;4197539;28;20446;-34
2021/12/13 06:06:26;;;;;;;0.40;0.40;;;;;;;;;;4196527;28;20044;-34
2021/12/13 06:08:30;;;;;;;0.60;0.55;;;;;;;;;;4197347;28;20074;-35
2021/12/13 06:10:47;;;;;;;0.57;0.52;;;;;;;;;;4197571;28;20051;-34
2021/12/13 06:12:51;;;;;;;0.43;0.43;;;;;;;;;;4193080;28;20451;-35
2021/12/13 06:14:53;;;;;;;1.95;0.57;;;;;;;;;;4181159;28;20485;-35
2021/12/13 06:17:13;;;;;;;0.57;0.57;;;;;;;;;;4179918;28;20095;-34
2021/12/13 06:19:26;;;;;;;0.45;0.45;;;;;;;;;;4181183;28;20090;-34
2021/12/13 06:21:43;;;;;;;0.80;0.60;;;;;;;;;;4181072;28;20052;-35
2021/12/13 06:23:46;;;;;;;0.68;0.50;;;;;;;;;;4181008;28;20045;-34
2021/12/13 06:25:49;;;;;;;0.57;0.57;;;;;;;;;;4181261;28;20163;-35
2021/12/13 06:27:54;;;;;;;1.23;0.73;;;;;;;;;;4179703;28;20485;-35
2021/12/13 06:30:05;;;;;;;0.65;0.50;;;;;;;;;;4180856;28;20061;-35
2021/12/13 06:32:20;;;;;;;1.08;0.60;;;;;;;;;;4180862;28;20048;-34
2021/12/13 06:34:26;;;;;;;0.63;0.60;;;;;;;;;;4181010;28;20052;-34
2021/12/13 06:36:31;;;;;;;0.40;0.40;;;;;;;;;;4182077;28;20087;-35
2021/12/13 06:38:47;;;;;;;0.80;0.70;;;;;;;;;;4193866;28;20044;-35
2021/12/13 06:41:03;;;;;;;0.70;0.50;;;;;;;;;;4191182;28;20044;-34
2021/12/13 06:43:08;;;;;;;0.70;0.40;;;;;;;;;;4193515;28;20056;-34
2021/12/13 06:45:17;;;;;;;0.68;0.60;;;;;;;;;;4200825;28;20111;-34
2021/12/13 06:47:20;;;;;;;1.03;0.70;;;;;;;;;;4203514;28;20093;-34
2021/12/13 06:49:24;;;;;;;0.73;0.55;;;;;;;;;;4213671;28;20506;-35
2021/12/13 06:51:43;;;;;;;0.50;0.50;;;;;;;;;;4204321;28;20090;-35
2021/12/13 06:54:00;;;;;;;0.50;0.50;;;;;;;;;;4189044;28;20052;-33
2021/12/13 06:56:28;;;;;;;0.40;0.40;;;;;;;;;;4186625;28;20056;-34
2021/12/13 06:58:29;;;;;;;0.50;0.50;;;;;;;;;;4183139;28;20105;-35
2021/12/13 07:00:32;;;;;;;1.25;0.60;;;;;;;;;;4190685;28;20114;-34
2021/12/13 07:02:41;;;;;;;0.65;0.55;;;;;;;;;;4192399;28;20372;-34
2021/12/13 07:04:50;;;;;;;0.70;0.57;;;;;;;;;;4190753;28;20404;-34
2021/12/13 07:06:51;;;;;;;0.40;0.40;;;;;;;;;;4185683;28;20469;-35
2021/12/13 07:09:01;;;;;;;1.15;0.60;;;;;;;;;;4195675;28;20048;-34
2021/12/13 07:11:05;;;;;;;0.65;0.50;;;;;;;;;;4192719;28;20040;-33
2021/12/13 07:13:08;;;;;;;0.63;0.60;;;;;;;;;;4190249;28;20052;-34
2021/12/13 07:15:20;;;;;;;1.10;0.57;;;;;;;;;;4196855;28;20093;-34
2021/12/13 07:17:29;;;;;;;0.98;0.60;;;;;;;;;;4196196;28;20044;-34
2021/12/13 07:19:30;;;;;;;0.63;0.60;;;;;;;;;;4196833;28;20048;-35
2021/12/13 07:21:31;;;;;;;0.57;0.57;;;;;;;;;;4198065;28;20044;-33
2021/12/13 07:23:50;;;;;;;0.65;0.60;;;;;;;;;;4194752;28;20113;-34
2021/12/13 07:25:54;;;;;;;0.90;0.80;;;;;;;;;;4210256;28;20545;-33
2021/12/13 07:27:55;;;;;;;0.75;0.55;;;;;;;;;;4199361;28;20067;-34
2021/12/13 07:29:59;;;;;;;0.50;0.50;;;;;;;;;;4195139;28;20456;-34
2021/12/13 07:32:09;;;;;;;0.77;0.70;;;;;;;;;;4199972;28;20208;-33
2021/12/13 07:34:13;;;;;;;0.80;0.60;;;;;;;;;;4193972;28;20052;-36
2021/12/13 07:36:17;;;;;;;0.50;0.50;;;;;;;;;;4192400;28;20059;-34
2021/12/13 07:38:18;;;;;;;0.70;0.55;;;;;;;;;;4197250;28;20527;-35
2021/12/13 07:40:25;;;;;;;0.90;0.60;;;;;;;;;;4197500;28;20098;-33
2021/12/13 07:42:31;;;;;;;2.22;0.80;;;;;;;;;;4203645;28;20048;-34
2021/12/13 07:44:46;;;;;;;0.63;0.60;;;;;;;;;;4196501;28;20121;-33
2021/12/13 07:46:57;;;;;;;0.70;0.70;;;;;;;;;;4187894;28;20051;-34
2021/12/13 07:49:08;;;;;;;1.52;0.60;;;;;;;;;;4187846;28;20455;-33
2021/12/13 07:51:29;;;;;;;1.23;0.90;;;;;;;;;;4193794;28;20049;-34
2021/12/13 07:53:38;;;;;;;0.80;0.73;;;;;;;;;;4194748;28;20068;-35
2021/12/13 07:55:46;;;;;;;1.17;0.70;;;;;;;;;;4195941;28;20045;-33
2021/12/13 07:57:48;;;;;;;1.02;0.70;;;;;;;;;;4194095;28;20045;-34
2021/12/13 07:59:50;;;;;;;1.30;0.65;;;;;;;;;;4195122;28;20044;-33
2021/12/13 08:01:57;;;;;;;1.05;0.88;;;;;;;;;;4184883;28;20052;-34
2021/12/13 08:04:05;;;;;;;1.88;0.82;;;;;;;;;;4194476;28;20399;-34
2021/12/13 08:06:06;;;;;;;1.60;1.02;;;;;;;;;;4192558;28;20098;-34
2021/12/13 08:08:15;;;;;;;1.35;1.05;;;;;;;;;;4196748;28;20376;-34
2021/12/13 08:10:24;;;;;;;3.08;0.90;;;;;;;;;;4192925;28;20056;-33
2021/12/13 08:12:30;;;;;;;1.42;1.00;;;;;;;;;;4193632;28;20056;-33
2021/12/13 08:14:34;;;;;;;1.90;1.23;;;;;;;;;;4193456;28;20052;-33
2021/12/13 08:16:37;;;;;;;1.35;0.73;;;;;;;;;;4184470;28;20048;-33
2021/12/13 08:18:40;;;;;;;1.65;0.80;;;;;;;;;;4195661;28;20110;-36
2021/12/13 08:20:43;;;;;;;2.42;0.90;;;;;;;;;;4190923;28;20098;-34
2021/12/13 08:22:47;;;;;;;1.05;0.90;;;;;;;;;;4193171;28;20475;-34
2021/12/13 08:24:50;;;;;;;3.30;1.35;;;;;;;;;;4194640;28;20060;-35
2021/12/13 08:26:59;;;;;;;2.28;1.20;;;;;;;;;;4189296;28;20149;-34
2021/12/13 08:29:02;;;;;;;1.70;0.90;;;;;;;;;;4190028;28;20090;-34
2021/12/13 08:31:05;;;;;;;1.58;1.00;;;;;;;;;;4192278;28;20415;-34
2021/12/13 08:33:09;;;;;;;2.17;0.95;;;;;;;;;;4195836;28;20507;-34
2021/12/13 08:35:10;;;;;;;2.05;0.90;;;;;;;;;;4197271;28;20057;-34
2021/12/13 08:37:17;;;;;;;1.33;0.85;;;;;;;;;;4189696;28;20159;-35
2021/12/13 08:39:25;;;;;;;1.70;0.98;;;;;;;;;;4198894;28;20109;-34
2021/12/13 08:41:29;;;;;;;0.88;0.80;;;;;;;;;;4195040;28;20045;-34
2021/12/13 08:43:35;;;;;;;3.33;1.08;;;;;;;;;;4191981;28;20103;-34
2021/12/13 08:45:40;;;;;;;1.00;0.90;;;;;;;;;;4193682;28;20633;-34
2021/12/13 08:47:44;;;;;;;1.23;0.90;;;;;;;;;;4193566;28;20452;-34
2021/12/13 08:49:47;;;;;;;1.13;0.88;;;;;;;;;;4195339;28;20056;-34
2021/12/13 08:52:08;;;;;;;1.20;0.70;;;;;;;;;;4193256;28;20059;-34
2021/12/13 08:54:12;;;;;;;2.03;1.10;;;;;;;;;;4189770;28;20044;-34
2021/12/13 08:56:20;;;;;;;2.33;0.82;;;;;;;;;;4193325;28;20441;-34
2021/12/13 08:58:21;;;;;;;1.50;0.90;;;;;;;;;;4194803;28;20047;-34
2021/12/13 09:00:22;;;;;;;3.30;1.10;;;;;;;;;;4194102;28;20052;-34
2021/12/13 09:02:28;;;;;;;1.05;0.90;;;;;;;;;;4185698;28;20055;-34
2021/12/13 09:04:31;;;;;;;0.88;0.80;;;;;;;;;;4190077;28;20060;-34
2021/12/13 09:06:33;;;;;;;1.25;0.85;;;;;;;;;;4189675;28;20554;-34
2021/12/13 09:08:42;;;;;;;2.97;1.10;;;;;;;;;;4185473;28;20060;-34
2021/12/13 09:10:43;;;;;;;0.70;0.67;;;;;;;;;;4195153;28;20060;-35
2021/12/13 09:12:45;;;;;;;1.42;0.73;;;;;;;;;;4194926;28;20044;-34
2021/12/13 09:14:51;;;;;;;1.73;0.95;;;;;;;;;;4193488;28;20447;-34
2021/12/13 09:17:06;;;;;;;1.10;1.00;;;;;;;;;;4186785;28;20044;-34
2021/12/13 09:19:10;;;;;;;1.98;0.80;;;;;;;;;;4193990;28;20443;-35
2021/12/13 09:21:17;;;;;;;1.13;0.80;;;;;;;;;;4189546;28;20049;-35
2021/12/13 09:23:21;;;;;;;1.55;1.10;;;;;;;;;;4190319;28;20056;-35
2021/12/13 09:25:33;;;;;;;0.82;0.63;;;;;;;;;;4189872;28;20051;-35
2021/12/13 09:27:40;;;;;;;1.30;0.80;;;;;;;;;;4182222;28;20102;-35
2021/12/13 09:29:59;;;;;;;1.45;0.95;;;;;;;;;;4188517;28;20475;-34
2021/12/13 09:32:01;;;;;;;1.38;0.75;;;;;;;;;;4190950;28;20113;-49
2021/12/13 09:34:14;;;;;;;1.00;0.90;;;;;;;;;;4188705;28;20659;-34
2021/12/13 09:36:18;;;;;;;3.25;0.82;;;;;;;;;;4194538;28;20063;-34
2021/12/13 09:38:25;;;;;;;0.60;0.60;;;;;;;;;;4194402;28;20075;-33
2021/12/13 09:40:32;;;;;;;1.35;0.90;;;;;;;;;;4188588;28;20113;-34
2021/12/13 09:42:43;;;;;;;1.60;1.15;;;;;;;;;;4185741;28;20052;-35
2021/12/13 09:44:49;;;;;;;1.55;0.95;;;;;;;;;;4181514;28;20060;-38
2021/12/13 09:46:56;;;;;;;1.27;0.80;;;;;;;;;;4188161;28;20051;-35
2021/12/13 09:48:59;;;;;;;0.85;0.77;;;;;;;;;;4189220;28;20133;-34
2021/12/13 09:51:02;;;;;;;2.42;0.70;;;;;;;;;;4188530;28;20036;-34
2021/12/13 09:53:05;;;;;;;1.30;0.98;;;;;;;;;;4189461;28;20142;-35
2021/12/13 09:55:12;;;;;;;3.35;0.65;;;;;;;;;;4190800;28;20045;-35
2021/12/13 09:57:15;;;;;;;0.98;0.70;;;;;;;;;;4191010;28;20415;-35
2021/12/13 09:59:19;;;;;;;1.25;1.15;;;;;;;;;;4188913;28;20128;-35
2021/12/13 10:01:26;;;;;;;1.02;0.80;;;;;;;;;;4187917;28;20060;-35
2021/12/13 10:03:28;;;;;;;0.82;0.77;;;;;;;;;;4187553;28;20086;-35
2021/12/13 10:05:33;;;;;;;0.73;0.70;;;;;;;;;;4188172;28;20052;-35
2021/12/13 10:07:36;;;;;;;1.05;0.75;;;;;;;;;;4186409;28;20071;-34
2021/12/13 10:09:40;;;;;;;0.90;0.73;;;;;;;;;;4188414;28;20048;-34
2021/12/13 10:11:45;;;;;;;1.42;0.60;;;;;;;;;;4190637;28;20076;-35
2021/12/13 10:13:46;;;;;;;1.20;0.75;;;;;;;;;;4190645;28;20060;-35
2021/12/13 10:15:52;;;;;;;2.90;0.98;;;;;;;;;;4186373;28;20063;-35
2021/12/13 10:17:55;;;;;;;0.45;0.45;;;;;;;;;;4196229;28;20059;-35
2021/12/13 10:19:59;;;;;;;1.05;0.73;;;;;;;;;;4192023;28;20044;-35
2021/12/13 10:22:01;;;;;;;2.58;0.70;;;;;;;;;;4191611;28;20437;-35
2021/12/13 10:24:25;;;;;;;1.27;0.90;;;;;;;;;;4168251;28;20053;-35
2021/12/13 10:26:32;;;;;;;0.90;0.70;;;;;;;;;;4174009;28;20045;-35
2021/12/13 10:28:38;;;;;;;1.13;0.82;;;;;;;;;;4188113;28;20037;-35
2021/12/13 10:30:42;;;;;;;0.70;0.60;;;;;;;;;;4189162;28;20129;-35
2021/12/13 10:32:44;;;;;;;1.08;0.80;;;;;;;;;;4185981;28;20047;-35
2021/12/13 10:34:48;;;;;;;0.80;0.70;;;;;;;;;;4188722;28;20056;-34
2021/12/13 10:36:52;;;;;;;1.20;0.93;;;;;;;;;;4189999;28;20079;-35
2021/12/13 10:38:54;;;;;;;1.20;0.85;;;;;;;;;;4186762;28;20491;-35
2021/12/13 10:40:57;;;;;;;1.00;0.70;;;;;;;;;;4190890;28;20090;-35
2021/12/13 10:43:03;;;;;;;2.20;0.98;;;;;;;;;;4187145;28;20431;-35
2021/12/13 10:45:07;;;;;;;1.27;0.68;;;;;;;;;;4186561;28;20190;-35
2021/12/13 10:47:11;;;;;;;1.00;0.68;;;;;;;;;;4187584;28;20439;-36
2021/12/13 10:49:15;;;;;;;0.82;0.80;;;;;;;;;;4185725;28;20048;-41
2021/12/13 10:51:18;;;;;;;0.90;0.68;;;;;;;;;;4185485;28;21137;-35
2021/12/13 10:53:22;;;;;;;1.52;0.70;;;;;;;;;;4188469;28;20060;-35
2021/12/13 10:55:29;;;;;;;1.48;1.05;;;;;;;;;;4188736;28;20044;-34
2021/12/13 10:57:34;;;;;;;1.73;1.00;;;;;;;;;;4188765;28;20466;-35
2021/12/13 10:59:35;;;;;;;1.38;0.80;;;;;;;;;;4189070;28;20057;-33
2021/12/13 11:01:38;;;;;;;1.20;0.88;;;;;;;;;;4183370;28;20125;-33
2021/12/13 11:03:40;;;;;;;0.70;0.60;;;;;;;;;;4185968;28;20075;-34
2021/12/13 11:05:42;;;;;;;1.25;0.82;;;;;;;;;;4189639;28;20052;-34
2021/12/13 11:07:43;;;;;;;1.73;0.85;;;;;;;;;;4188307;28;20060;-33
2021/12/13 11:09:45;;;;;;;1.55;0.75;;;;;;;;;;4193655;28;20145;-34
2021/12/13 11:11:48;;;;;;;1.08;0.90;;;;;;;;;;4187638;28;20413;-33
2021/12/13 11:13:51;;;;;;;0.93;0.70;;;;;;;;;;4187408;28;20047;-34
2021/12/13 11:15:56;;;;;;;0.93;0.70;;;;;;;;;;4194275;28;20045;-33
2021/12/13 11:17:57;;;;;;;2.72;0.82;;;;;;;;;;4198680;28;20044;-36
2021/12/13 11:20:04;;;;;;;1.52;0.80;;;;;;;;;;4188522;28;20091;-34
2021/12/13 11:22:08;;;;;;;1.05;0.85;;;;;;;;;;4190202;28;20089;-34
2021/12/13 11:24:12;;;;;;;0.60;0.55;;;;;;;;;;4189341;28;20055;-34
2021/12/13 11:26:14;;;;;;;0.95;0.85;;;;;;;;;;4191073;28;20044;-36
2021/12/13 11:28:17;;;;;;;1.17;0.80;;;;;;;;;;4189159;28;20052;-35
2021/12/13 11:30:21;;;;;;;1.33;1.10;;;;;;;;;;4182394;28;20733;-36
2021/12/13 11:32:40;;;;;;;1.05;0.70;;;;;;;;;;4188025;28;20048;-37
2021/12/13 11:34:53;;;;;;;1.00;0.63;;;;;;;;;;4200115;28;20074;-35
2021/12/13 11:37:00;;;;;;;1.08;0.73;;;;;;;;;;4189401;28;20036;-35
2021/12/13 11:39:20;;;;;;;0.85;0.60;;;;;;;;;;4185611;28;20048;-34
2021/12/13 11:41:39;;;;;;;1.88;0.90;;;;;;;;;;4193680;28;20048;-35
2021/12/13 11:43:54;;;;;;;1.03;0.80;;;;;;;;;;4185262;28;20047;-34
2021/12/13 11:46:18;;;;;;;1.35;0.85;;;;;;;;;;4178312;28;20485;-34
2021/12/13 11:48:41;;;;;;;1.10;0.70;;;;;;;;;;4183229;28;20075;-35
2021/12/13 11:50:49;;;;;;;1.10;0.82;;;;;;;;;;4182223;28;20362;-35
2021/12/13 11:52:56;;;;;;;1.10;0.70;;;;;;;;;;4188112;28;20045;-35
2021/12/13 11:55:15;;;;;;;2.42;0.68;;;;;;;;;;4185488;28;20063;-35
2021/12/13 11:57:30;;;;;;;0.85;0.60;;;;;;;;;;4185898;28;20048;-36
2021/12/13 11:59:51;;;;;;;0.77;0.70;;;;;;;;;;4189706;28;20045;-34
2021/12/13 12:02:11;;;;;;;1.27;0.75;;;;;;;;;;4191328;28;20075;-35
2021/12/13 12:04:12;;;;;;;;;;;;;;;;;;4187433;28;20329;-35
2021/12/13 12:06:19;;;;;;;0.93;0.55;;;;;;;;;;4190927;28;19920;-34
2021/12/13 12:08:35;;;;;;;2.05;0.60;;;;;;;;;;4190097;28;20129;-34
2021/12/13 12:10:39;;;;;;;0.90;0.70;;;;;;;;;;4190502;28;20110;-34
2021/12/13 12:12:53;;;;;;;1.48;0.55;;;;;;;;;;4184541;28;20052;-34
2021/12/13 12:15:00;;;;;;;2.70;0.80;;;;;;;;;;4184167;28;20052;-34
2021/12/13 12:17:02;;;;;;;0.93;0.60;;;;;;;;;;4186738;28;20060;-34
2021/12/13 12:19:04;;;;;;;1.00;0.65;;;;;;;;;;4190399;28;20060;-35
2021/12/13 12:21:23;;;;;;;0.80;0.80;;;;;;;;;;4190930;28;20048;-34
2021/12/13 12:23:27;;;;;;;0.82;0.70;;;;;;;;;;4186130;28;20060;-34
2021/12/13 12:25:29;;;;;;;4.10;0.80;;;;;;;;;;4191044;28;20044;-34
2021/12/13 12:27:31;;;;;;;1.48;0.93;;;;;;;;;;4180681;28;20143;-34
2021/12/13 12:29:38;;;;;;;0.68;0.52;;;;;;;;;;4187255;28;20448;-34
2021/12/13 12:31:41;;;;;;;1.58;0.85;;;;;;;;;;4183651;28;20044;-34
2021/12/13 12:33:42;;;;;;;2.30;0.80;;;;;;;;;;4185453;28;20409;-34
2021/12/13 12:35:47;;;;;;;1.65;0.90;;;;;;;;;;4189288;28;20095;-34
2021/12/13 12:37:57;;;;;;;0.70;0.70;;;;;;;;;;4188366;28;20060;-33
2021/12/13 12:39:58;;;;;;;;;;;;;;;;;;4195237;28;20373;-33